Ashburn, Missouri
Current Conditions -  °F | °C
As of 10:35 PM on Saturday 22 Nov 2014 (Local Time) from KPPQ Reporting Station
Overcast Overcast  
Wind Chill: 12°   Ceiling: 1200
Heat Index: 12°   Visibility: 10mi
Dew Point: 10°   Wind: 14mph
Humidity: 85%   Direction: 180°S
Pressure: 29.83"   Gusts: NA
Location:  39.54°N, 91.17°W
Report Text: KPPQ 230435Z AUTO 18012KT 10SM OVC012 12/10 A2983 RMK AO2 T01230098 PWINO
Loading
Personal Weather Stations






























Interactive Weather Map New forecast layout! Learn more

10-Day Weather Forecast

Advertisements
Track Severe Weather on mobile